CheckWX is a tool to help pilots better visualize weather data.  It is not intended as a substitute for an official pre-flight weather briefing.

20:30:59 UTC

OISL TAF
Lar Airport
Lar, Iran
TAF OISL 221730Z 2218/2324 17006KT 8000 SCT040 BKN100 TEMPO 2218/2222 20016KT 5000 TSRA FEW035CB SCT040 OVC090 TEMPO 2302/2308 18016KT RA FEW035CB SCT035 OVC090 BECMG 2312/2314 FEW035 SCT090 TEMPO 2320/2324 18018KT RA FEW035CB SCT035 OVC100

Mar-22@
18:00 UTC

Mar-22 @ 18:00 UTC

Mar-23@
12:00 UTC

Mar-23 @ 12:00 UTC

TAF OISL 221730Z 2218/2324 17006KT 8000 SCT040 BKN100
Wind
  • 170° at 6 KTS
Cloud Levels
  • Scattered at 4,000' AGL
  • Broken at 10,000' AGL

Mar-22@
18:00 UTC

Mar-22 @ 18:00 UTC

Mar-22@
22:00 UTC

Mar-22 @ 22:00 UTC

TEMPO 2218/2222 20016KT 5000 TSRA FEW035CB SCT040 OVC090

Temporary

Temporary Changes expected for less than half the time period

Wind
  • 200° at 16 KTS
Conditions
Thunderstorm, Rain
Cloud Levels
  • Few at 3,500' AGL
  • Scattered at 4,000' AGL
  • Overcast at 9,000' AGL

Mar-23@
02:00 UTC

Mar-23 @ 02:00 UTC

Mar-23@
08:00 UTC

Mar-23 @ 08:00 UTC

TEMPO 2302/2308 18016KT RA FEW035CB SCT035 OVC090

Temporary

Temporary Changes expected for less than half the time period

Wind
  • 180° at 16 KTS
Conditions
Rain
Cloud Levels
  • Few at 3,500' AGL
  • Scattered at 3,500' AGL
  • Overcast at 9,000' AGL

Mar-23@
12:00 UTC

Mar-23 @ 12:00 UTC

Mar-24@
00:00 UTC

Mar-24 @ 00:00 UTC

BECMG 2312/2314 FEW035 SCT090

Becoming

Becoming Conditions expected by Sat, Mar 23, 2019 @ 14:00 UTC

Wind
  • 170° at 6 KTS
Cloud Levels
  • Few at 3,500' AGL
  • Scattered at 9,000' AGL

Mar-23@
20:00 UTC

Mar-23 @ 20:00 UTC

Mar-24@
00:00 UTC

Mar-24 @ 00:00 UTC

TEMPO 2320/2324 18018KT RA FEW035CB SCT035 OVC100

Temporary

Temporary Changes expected for less than half the time period

Wind
  • 180° at 18 KTS
Conditions
Rain
Cloud Levels
  • Few at 3,500' AGL
  • Scattered at 3,500' AGL
  • Overcast at 10,000' AGL